Share

Greenbush, MN (56726)

1:28 AM CDT on April 24, 2014 (GMT -0500)
RAWS KITTSON MN US (MKITM5) Elev 1060 ft | 48.59 °N, 96.49 °W | Change Station

Current weather conditions updated 56 minutes ago

Rain
Rain
38 °F
Feels Like 30 °F
N
13
Wind Variable Wind from ESE
Gusts 22.0 mph
Sunrise 6:17 AM
Sunset 8:29 PM
Moon Waning Crescent

Today is forecast to be Much Cooler than yesterday. Mainly cloudy and rainy.

Pressure 29.92 in
Visibility 10.0 miles
Clouds Scattered Clouds 2000 ft
Mostly Cloudy 4300 ft
Windchill 30 °F
Dew Point 35 °F
Humidity 90%
Rainfall 0.26 in
Snow Depth Not available.
UV 0 out of 16
Pollen 7.80 out of 12
Air Quality Not available.
Flu Activity Sporadic
METAR KROX 240601Z AUTO 11006KT 10SM SCT020 BKN043 03/01 A2992 RMK AO2

More Conditions Fewer Conditions

Pressure 29.92 in
Visibility 10.0 miles
Clouds Scattered Clouds 2000 ft
Mostly Cloudy 4300 ft
Windchill 30 °F
Dew Point 35 °F
Humidity 90%
Rainfall 0.26 in
Snow Depth Not available.
UV 0 out of 16
Pollen 7.80 out of 12
Air Quality Not available.
Flu Activity Sporadic
METAR KROX 240601Z AUTO 11006KT 10SM SCT020 BKN043 03/01 A2992 RMK AO2

More Conditions Fewer Conditions

10-Day Weather Forecast

Almanac

Astronomy

Apr. 24, 2014 Rise Set
Actual Time 6:17 AM CDT 8:29 PM CDT
Civil Twilight 5:42 AM CDT 9:04 PM CDT
Nautical Twilight 4:59 AM CDT 9:47 PM CDT
Astronomical Twilight 4:11 AM CDT 10:36 PM CDT
Moon 3:54 AM CDT 3:23 PM CDT
Length of Visible Light 15h 21m
Length of Day
14h 12m
Tomorrow will be 3m 18s longer.
Waning Crescent, 28% of the Moon is Illuminated
Today
Waning Crescent
Apr 29
New
May 6
First Quarter
May 14
Full
May 21
Last Quarter

Today's Extremes

State Highs State Lows

Community

  • Stacked
    Stacked
  • clouds approaching Red Sox Nation
    clouds approaching Red Sox Nation
  • Balance
    Balance
  • Nestled In
    Nestled In
  • Stunning Sunrise
    Stunning Sunrise

WunderPhotos

Upload Photos

1,704,568 photos uploaded!

WunderBlogs® & News

Nearby

Snow Depth

Station Depth Elevation
No new snow has been reported.

Coastal Water Temperatures

Place Temperature
No Stations Reporting

Earthquake Activity

City Distance Mag. Time & Date
No recent earthquake activity has been reported nearby.
Minimum magnitude displayed is 2.5.

Nearby Weather Stations

Station Location Temp. Windchill Dew Point Humidity Wind Precip. Elev Updated Type
RAWS KITTSON MN, Karlstad, MN 38 °F 30 °F 35 °F 90% ESE  at  13 mph 0.01 in / hr 1060 ft 12:32 AM CDT MADIS
RAWS ROSEAU MN, Roseau, MN 37 °F 29 °F 35 °F 93% SE  at  11 mph 0.06 in / hr 1046 ft 12:08 AM CDT MADIS

Show More Stations Show Fewer Stations

What do you think?

We're not finished. Please let us know what you like, what you don't like, and what you are still missing.